Time;durP1;ratioP1;P1;durP2;ratioP2;P2;SDS_P1;SDS_P2;PMS_P1;PMS_P2;Temp;Humidity;BMP_temperature;BMP_pressure;BME280_temperature;BME280_humidity;BME280_pressure;Samples;Min_cycle;Max_cycle;Signal;HPM_P1;HPM_P2
2021/08/15 00:00:11;;;;;;;11.60;6.43;;;;;;;;;;143729;608;45021;-52
2021/08/15 00:02:39;;;;;;;13.93;6.82;;;;;;;;;;143730;564;46010;-52
2021/08/15 00:05:07;;;;;;;8.18;5.90;;;;;;;;;;143724;588;47020;-52
2021/08/15 00:07:36;;;;;;;17.60;7.97;;;;;;;;;;143726;592;46011;-52
2021/08/15 00:10:04;;;;;;;9.82;6.45;;;;;;;;;;143728;565;46012;-52
2021/08/15 00:12:31;;;;;;;11.77;6.72;;;;;;;;;;143729;617;46020;-52
2021/08/15 00:14:58;;;;;;;10.82;6.07;;;;;;;;;;143725;635;47021;-52
2021/08/15 00:17:25;;;;;;;11.80;6.62;;;;;;;;;;143728;607;46027;-52
2021/08/15 00:19:52;;;;;;;8.88;6.90;;;;;;;;;;143728;578;45020;-52
2021/08/15 00:22:19;;;;;;;15.45;6.95;;;;;;;;;;143730;590;46021;-52
2021/08/15 00:24:46;;;;;;;8.95;6.68;;;;;;;;;;143724;569;47022;-52
2021/08/15 00:27:13;;;;;;;10.30;7.10;;;;;;;;;;143721;593;47010;-51
2021/08/15 00:29:41;;;;;;;13.40;6.68;;;;;;;;;;143728;586;45021;-51
2021/08/15 00:32:08;;;;;;;11.07;7.12;;;;;;;;;;143730;629;46010;-52
2021/08/15 00:34:35;;;;;;;14.80;6.97;;;;;;;;;;143756;606;46020;-52
2021/08/15 00:37:02;;;;;;;11.15;7.53;;;;;;;;;;143755;589;46010;-53
2021/08/15 00:39:29;;;;;;;8.05;6.40;;;;;;;;;;143757;604;44911;-52
2021/08/15 00:41:57;;;;;;;9.88;6.90;;;;;;;;;;143758;571;45020;-52
2021/08/15 00:44:24;;;;;;;9.55;6.72;;;;;;;;;;143754;622;46021;-52
2021/08/15 00:46:51;;;;;;;11.10;7.15;;;;;;;;;;143754;612;45918;-52
2021/08/15 00:49:19;;;;;;;10.88;7.62;;;;;;;;;;143754;636;44913;-52
2021/08/15 00:51:46;;;;;;;13.70;7.57;;;;;;;;;;143757;610;45021;-52
2021/08/15 00:54:13;;;;;;;10.18;7.15;;;;;;;;;;143756;627;46020;-52
2021/08/15 00:56:40;;;;;;;9.35;6.78;;;;;;;;;;143754;569;45917;-52
2021/08/15 00:59:08;;;;;;;9.13;7.03;;;;;;;;;;143755;583;44913;-51
2021/08/15 01:01:35;;;;;;;11.40;7.43;;;;;;;;;;143757;610;46010;-52
2021/08/15 01:04:06;;;;;;;11.48;7.72;;;;;;;;;;143754;579;46020;-52
2021/08/15 01:06:33;;;;;;;14.82;7.65;;;;;;;;;;143754;636;46010;-52
2021/08/15 01:09:03;;;;;;;7.22;6.20;;;;;;;;;;143757;564;44912;-52
2021/08/15 01:11:32;;;;;;;10.50;7.18;;;;;;;;;;143759;614;45020;-52
2021/08/15 01:14:02;;;;;;;9.52;6.93;;;;;;;;;;143753;579;46021;-52
2021/08/15 01:16:29;;;;;;;8.57;6.80;;;;;;;;;;143754;589;45918;-52
2021/08/15 01:18:56;;;;;;;12.68;6.87;;;;;;;;;;143756;604;44912;-52
2021/08/15 01:21:23;;;;;;;12.75;7.03;;;;;;;;;;143758;565;45020;-52
2021/08/15 01:23:50;;;;;;;14.18;7.43;;;;;;;;;;143756;588;46020;-52
2021/08/15 01:26:19;;;;;;;9.48;7.00;;;;;;;;;;143754;577;45918;-52
2021/08/15 01:28:48;;;;;;;10.32;6.75;;;;;;;;;;143757;575;44021;-52
2021/08/15 01:31:15;;;;;;;10.90;6.03;;;;;;;;;;143758;679;45020;-52
2021/08/15 01:33:42;;;;;;;9.20;7.03;;;;;;;;;;143738;621;47020;-52
2021/08/15 01:36:14;;;;;;;8.88;6.25;;;;;;;;;;143728;692;46010;-52
2021/08/15 01:38:42;;;;;;;9.02;6.57;;;;;;;;;;143730;623;45020;-52
2021/08/15 01:41:09;;;;;;;8.02;6.25;;;;;;;;;;143728;585;47020;-53
2021/08/15 01:43:54;;;;;;;9.80;7.35;;;;;;;;;;143725;619;47022;-52
2021/08/15 01:46:24;;;;;;;9.55;7.20;;;;;;;;;;143726;795;47010;-52
2021/08/15 01:48:51;;;;;;;9.63;7.55;;;;;;;;;;143728;692;45020;-52
2021/08/15 01:51:19;;;;;;;10.75;7.43;;;;;;;;;;143730;590;46010;-52
2021/08/15 01:53:48;;;;;;;10.63;7.82;;;;;;;;;;143727;600;47020;-52
2021/08/15 01:56:16;;;;;;;12.98;8.13;;;;;;;;;;143727;596;46010;-52
2021/08/15 01:58:43;;;;;;;10.15;7.43;;;;;;;;;;143730;576;45021;-51
2021/08/15 02:01:14;;;;;;;9.10;7.50;;;;;;;;;;143730;641;46020;-53
2021/08/15 02:03:41;;;;;;;9.60;6.62;;;;;;;;;;143725;594;47022;-52
2021/08/15 02:06:08;;;;;;;12.82;8.30;;;;;;;;;;143728;612;46010;-52
2021/08/15 02:08:35;;;;;;;11.90;6.87;;;;;;;;;;143729;609;45020;-52
2021/08/15 02:11:02;;;;;;;13.23;7.10;;;;;;;;;;143729;601;46010;-52
2021/08/15 02:13:29;;;;;;;12.48;7.87;;;;;;;;;;143726;586;47021;-53
2021/08/15 02:15:56;;;;;;;9.65;7.43;;;;;;;;;;143726;569;47010;-52
2021/08/15 02:18:23;;;;;;;10.32;7.15;;;;;;;;;;143728;620;45913;-51
2021/08/15 02:20:50;;;;;;;9.15;7.32;;;;;;;;;;143730;572;46011;-52
2021/08/15 02:23:18;;;;;;;15.32;7.30;;;;;;;;;;143726;588;47020;-52
2021/08/15 02:25:45;;;;;;;8.93;6.93;;;;;;;;;;143727;598;46027;-52
2021/08/15 02:28:12;;;;;;;10.60;6.90;;;;;;;;;;143730;600;45021;-53
2021/08/15 02:30:39;;;;;;;9.73;6.85;;;;;;;;;;143730;603;46020;-52
2021/08/15 02:33:06;;;;;;;10.80;7.57;;;;;;;;;;143726;699;47020;-53
2021/08/15 02:35:33;;;;;;;14.18;7.87;;;;;;;;;;143728;586;46010;-53
2021/08/15 02:38:01;;;;;;;10.13;7.47;;;;;;;;;;143728;577;46020;-51
2021/08/15 02:40:28;;;;;;;10.57;7.30;;;;;;;;;;143730;623;46020;-52
2021/08/15 02:42:55;;;;;;;8.52;6.78;;;;;;;;;;143726;615;47022;-52
2021/08/15 02:45:24;;;;;;;10.38;7.03;;;;;;;;;;143725;595;47010;-52
2021/08/15 02:47:52;;;;;;;12.93;7.97;;;;;;;;;;143730;600;45020;-52
2021/08/15 02:50:19;;;;;;;15.77;7.45;;;;;;;;;;143729;570;46020;-51
2021/08/15 02:52:47;;;;;;;9.80;7.07;;;;;;;;;;143725;636;47034;-52
2021/08/15 02:55:14;;;;;;;11.12;6.65;;;;;;;;;;143727;602;46010;-52
2021/08/15 02:57:41;;;;;;;9.48;6.72;;;;;;;;;;143730;564;45021;-52
2021/08/15 03:00:10;;;;;;;9.45;7.12;;;;;;;;;;143730;608;46020;-52
2021/08/15 03:02:38;;;;;;;12.00;7.15;;;;;;;;;;143727;580;47020;-53
2021/08/15 03:05:06;;;;;;;12.63;7.28;;;;;;;;;;143727;580;47011;-52
2021/08/15 03:07:33;;;;;;;12.00;7.37;;;;;;;;;;143728;709;45020;-52
2021/08/15 03:10:00;;;;;;;12.63;6.80;;;;;;;;;;143730;645;46010;-52
2021/08/15 03:12:27;;;;;;;10.15;7.10;;;;;;;;;;143725;611;47022;-52
2021/08/15 03:14:54;;;;;;;12.18;7.00;;;;;;;;;;143726;564;47010;-52
2021/08/15 03:17:21;;;;;;;8.02;6.55;;;;;;;;;;143728;593;46012;-53
2021/08/15 03:19:48;;;;;;;11.35;6.82;;;;;;;;;;143730;572;46020;-52
2021/08/15 03:22:15;;;;;;;11.65;6.70;;;;;;;;;;143726;661;47020;-52
2021/08/15 03:24:42;;;;;;;11.52;7.32;;;;;;;;;;143729;581;46010;-53
2021/08/15 03:27:09;;;;;;;16.50;6.87;;;;;;;;;;143729;622;45021;-52
2021/08/15 03:29:36;;;;;;;8.60;6.15;;;;;;;;;;143731;628;46010;-52
2021/08/15 03:32:03;;;;;;;11.12;6.60;;;;;;;;;;143726;640;47022;-52
2021/08/15 03:34:30;;;;;;;9.93;7.28;;;;;;;;;;143742;631;46010;-52
2021/08/15 03:36:58;;;;;;;12.55;6.90;;;;;;;;;;143741;585;45021;-52
2021/08/15 03:39:29;;;;;;;11.20;7.12;;;;;;;;;;143744;634;45020;-52
2021/08/15 03:41:58;;;;;;;13.05;7.82;;;;;;;;;;143742;597;47021;-52
2021/08/15 03:44:27;;;;;;;10.18;7.53;;;;;;;;;;143742;611;46031;-52
2021/08/15 03:46:54;;;;;;;10.32;6.90;;;;;;;;;;143743;590;45020;-52
2021/08/15 03:49:21;;;;;;;11.63;6.97;;;;;;;;;;143745;569;46020;-52
2021/08/15 03:51:48;;;;;;;16.52;7.20;;;;;;;;;;143740;604;47021;-52
2021/08/15 03:54:19;;;;;;;10.05;6.82;;;;;;;;;;143740;564;47010;-53
2021/08/15 03:56:47;;;;;;;9.75;6.80;;;;;;;;;;143743;659;45021;-52
2021/08/15 03:59:15;;;;;;;9.18;6.57;;;;;;;;;;143746;601;46021;-53
2021/08/15 04:01:42;;;;;;;8.82;6.75;;;;;;;;;;143741;805;47020;-52
2021/08/15 04:04:10;;;;;;;13.48;7.22;;;;;;;;;;143741;578;46011;-52
2021/08/15 04:06:37;;;;;;;13.55;7.32;;;;;;;;;;143742;584;45913;-53
2021/08/15 04:09:05;;;;;;;10.98;6.87;;;;;;;;;;143746;579;45020;-52
2021/08/15 04:11:32;;;;;;;11.30;6.30;;;;;;;;;;143742;626;47021;-52
2021/08/15 04:13:59;;;;;;;8.60;6.70;;;;;;;;;;143740;910;47010;-53
2021/08/15 04:16:26;;;;;;;11.25;7.25;;;;;;;;;;143741;716;45020;-52
2021/08/15 04:18:55;;;;;;;10.07;7.10;;;;;;;;;;143746;567;46020;-52
2021/08/15 04:21:22;;;;;;;8.90;7.15;;;;;;;;;;143742;586;47020;-52
2021/08/15 04:23:49;;;;;;;11.38;7.22;;;;;;;;;;143741;594;47010;-52
2021/08/15 04:26:16;;;;;;;10.35;6.95;;;;;;;;;;143745;586;45020;-52
2021/08/15 04:28:43;;;;;;;16.20;7.53;;;;;;;;;;143746;577;46021;-53
2021/08/15 04:31:10;;;;;;;12.00;7.20;;;;;;;;;;143742;594;47020;-52
2021/08/15 04:33:37;;;;;;;9.55;6.65;;;;;;;;;;143735;565;46026;-51
2021/08/15 04:36:05;;;;;;;15.45;7.43;;;;;;;;;;143730;607;45021;-52
2021/08/15 04:38:32;;;;;;;10.65;6.78;;;;;;;;;;143732;590;46010;-52
2021/08/15 04:40:59;;;;;;;9.73;6.28;;;;;;;;;;143727;620;47022;-52
2021/08/15 04:43:26;;;;;;;11.88;7.18;;;;;;;;;;143729;605;46021;-52
2021/08/15 04:45:53;;;;;;;7.75;5.97;;;;;;;;;;143730;628;45913;-52
2021/08/15 04:48:20;;;;;;;10.95;7.30;;;;;;;;;;143732;566;46020;-52
2021/08/15 04:50:47;;;;;;;11.77;7.22;;;;;;;;;;143727;624;47023;-52
2021/08/15 04:53:14;;;;;;;11.48;6.87;;;;;;;;;;143729;781;46010;-52
2021/08/15 04:55:42;;;;;;;11.30;6.75;;;;;;;;;;143731;652;45020;-52
2021/08/15 04:58:08;;;;;;;11.32;7.25;;;;;;;;;;143734;576;46021;-52
2021/08/15 05:00:35;;;;;;;11.00;6.60;;;;;;;;;;143726;601;47022;-52
2021/08/15 05:03:03;;;;;;;8.88;6.90;;;;;;;;;;143727;594;47010;-52
2021/08/15 05:05:30;;;;;;;10.70;6.90;;;;;;;;;;143730;569;45021;-52
2021/08/15 05:07:57;;;;;;;10.48;7.12;;;;;;;;;;143734;612;46010;-52
2021/08/15 05:10:24;;;;;;;11.00;6.00;;;;;;;;;;143729;636;47020;-51
2021/08/15 05:12:51;;;;;;;8.95;6.80;;;;;;;;;;143730;581;46010;-52
2021/08/15 05:15:18;;;;;;;11.55;7.12;;;;;;;;;;143731;565;45020;-52
2021/08/15 05:17:45;;;;;;;10.20;7.47;;;;;;;;;;143732;613;46010;-52
2021/08/15 05:20:13;;;;;;;8.00;6.28;;;;;;;;;;143728;587;47020;-52
2021/08/15 05:22:40;;;;;;;11.43;6.30;;;;;;;;;;143727;569;47010;-52
2021/08/15 05:25:08;;;;;;;7.90;6.20;;;;;;;;;;143730;669;45913;-52
2021/08/15 05:27:35;;;;;;;12.13;6.65;;;;;;;;;;143732;573;46021;-51
2021/08/15 05:30:02;;;;;;;10.23;6.47;;;;;;;;;;143726;578;47020;-52
2021/08/15 05:32:29;;;;;;;7.57;5.70;;;;;;;;;;143728;590;46010;-52
2021/08/15 05:34:56;;;;;;;9.52;6.62;;;;;;;;;;143730;583;45021;-52
2021/08/15 05:37:23;;;;;;;9.10;6.37;;;;;;;;;;143732;578;46010;-52
2021/08/15 05:39:50;;;;;;;8.60;5.90;;;;;;;;;;143729;579;47020;-51
2021/08/15 05:42:17;;;;;;;10.50;6.57;;;;;;;;;;143729;564;46010;-52
2021/08/15 05:44:44;;;;;;;10.45;6.12;;;;;;;;;;143730;639;45020;-52
2021/08/15 05:47:11;;;;;;;8.85;5.97;;;;;;;;;;143732;693;46010;-51
2021/08/15 05:49:38;;;;;;;12.32;6.57;;;;;;;;;;143730;664;47021;-52
2021/08/15 05:52:05;;;;;;;10.38;6.55;;;;;;;;;;143730;675;46027;-52
2021/08/15 05:54:32;;;;;;;10.82;6.70;;;;;;;;;;143730;644;45020;-53
2021/08/15 05:56:59;;;;;;;8.73;6.10;;;;;;;;;;143732;564;46010;-53
2021/08/15 05:59:26;;;;;;;9.55;5.97;;;;;;;;;;143727;673;47023;-52
2021/08/15 06:01:55;;;;;;;11.07;6.28;;;;;;;;;;143726;579;47010;-52
2021/08/15 06:04:22;;;;;;;10.43;6.43;;;;;;;;;;143731;622;45021;-52
2021/08/15 06:06:49;;;;;;;11.40;6.22;;;;;;;;;;143730;620;46020;-53
2021/08/15 06:09:16;;;;;;;9.05;5.90;;;;;;;;;;143728;639;47048;-53
2021/08/15 06:11:43;;;;;;;11.68;6.18;;;;;;;;;;143728;564;47010;-52
2021/08/15 06:14:10;;;;;;;8.05;6.35;;;;;;;;;;143730;593;45020;-52
2021/08/15 06:16:38;;;;;;;8.15;5.95;;;;;;;;;;143732;613;46010;-52
2021/08/15 06:19:05;;;;;;;8.00;5.87;;;;;;;;;;143727;602;47021;-53
2021/08/15 06:21:32;;;;;;;9.77;5.87;;;;;;;;;;143729;580;46027;-53
2021/08/15 06:23:59;;;;;;;9.15;5.37;;;;;;;;;;143731;622;45020;-52
2021/08/15 06:26:26;;;;;;;10.07;5.72;;;;;;;;;;143731;633;46020;-51
2021/08/15 06:28:53;;;;;;;8.57;5.70;;;;;;;;;;143728;585;47020;-52
2021/08/15 06:31:20;;;;;;;9.48;5.78;;;;;;;;;;143729;589;46027;-51
2021/08/15 06:33:47;;;;;;;10.30;6.10;;;;;;;;;;143730;588;45021;-51
2021/08/15 06:36:14;;;;;;;8.30;5.57;;;;;;;;;;143732;611;46010;-51
2021/08/15 06:38:41;;;;;;;10.80;6.05;;;;;;;;;;143730;638;46020;-52
2021/08/15 06:41:09;;;;;;;11.35;6.25;;;;;;;;;;143728;599;46920;-52
2021/08/15 06:43:36;;;;;;;10.82;6.20;;;;;;;;;;143729;605;45021;-52
2021/08/15 06:46:04;;;;;;;7.85;5.68;;;;;;;;;;143732;572;46020;-51
2021/08/15 06:48:31;;;;;;;9.93;5.65;;;;;;;;;;143728;619;47020;-51
2021/08/15 06:50:58;;;;;;;9.80;6.07;;;;;;;;;;143726;602;47010;-53
2021/08/15 06:53:29;;;;;;;7.60;5.80;;;;;;;;;;143729;607;46020;-52
2021/08/15 06:55:58;;;;;;;13.25;6.18;;;;;;;;;;143732;595;46020;-53
2021/08/15 06:58:28;;;;;;;8.75;5.68;;;;;;;;;;143728;566;47020;-52
2021/08/15 07:00:55;;;;;;;14.30;6.22;;;;;;;;;;143726;564;47010;-52
2021/08/15 07:03:22;;;;;;;11.73;6.40;;;;;;;;;;143731;608;45021;-52
2021/08/15 07:05:50;;;;;;;11.77;5.80;;;;;;;;;;143731;599;46021;-52
2021/08/15 07:08:17;;;;;;;9.45;5.40;;;;;;;;;;143728;565;47020;-52
2021/08/15 07:10:44;;;;;;;9.10;6.45;;;;;;;;;;143727;659;47010;-52
2021/08/15 07:13:12;;;;;;;8.02;5.60;;;;;;;;;;143732;602;45021;-51
2021/08/15 07:15:39;;;;;;;14.77;5.72;;;;;;;;;;143732;567;46020;-52
2021/08/15 07:18:06;;;;;;;7.95;5.37;;;;;;;;;;143727;630;47022;-52
2021/08/15 07:20:33;;;;;;;9.95;6.00;;;;;;;;;;143728;564;46010;-52
2021/08/15 07:23:00;;;;;;;10.85;6.12;;;;;;;;;;143732;666;45020;-52
2021/08/15 07:25:30;;;;;;;8.90;5.80;;;;;;;;;;143731;578;46021;-52
2021/08/15 07:27:59;;;;;;;10.48;5.82;;;;;;;;;;143727;645;47020;-52
2021/08/15 07:30:26;;;;;;;10.02;5.82;;;;;;;;;;143725;581;47010;-52
2021/08/15 07:32:58;;;;;;;10.23;5.40;;;;;;;;;;143735;649;45021;-51
2021/08/15 07:35:26;;;;;;;8.50;5.50;;;;;;;;;;143745;607;46021;-52
2021/08/15 07:37:54;;;;;;;13.20;6.40;;;;;;;;;;143742;564;47020;-52
2021/08/15 07:40:21;;;;;;;10.05;5.93;;;;;;;;;;143743;597;46028;-52
2021/08/15 07:42:51;;;;;;;11.02;5.30;;;;;;;;;;143745;573;45021;-51
2021/08/15 07:45:19;;;;;;;8.80;5.93;;;;;;;;;;143745;659;45020;-52
2021/08/15 07:47:46;;;;;;;6.68;5.43;;;;;;;;;;143740;564;47021;-52
2021/08/15 07:50:13;;;;;;;9.93;6.07;;;;;;;;;;143742;647;46010;-52
2021/08/15 07:52:40;;;;;;;8.85;5.72;;;;;;;;;;143745;605;45020;-51
2021/08/15 07:55:07;;;;;;;9.95;5.97;;;;;;;;;;143746;628;45021;-51
2021/08/15 07:57:34;;;;;;;11.43;6.12;;;;;;;;;;143742;565;47023;-51
2021/08/15 08:00:02;;;;;;;8.68;6.05;;;;;;;;;;143741;594;47010;-51
2021/08/15 08:02:29;;;;;;;9.68;5.78;;;;;;;;;;143745;569;45021;-52
2021/08/15 08:04:56;;;;;;;9.30;6.20;;;;;;;;;;143745;644;45021;-52
2021/08/15 08:07:24;;;;;;;11.02;5.60;;;;;;;;;;143740;589;47020;-52
2021/08/15 08:09:52;;;;;;;8.77;5.72;;;;;;;;;;143741;574;47010;-52
2021/08/15 08:12:21;;;;;;;8.88;5.95;;;;;;;;;;143745;564;45021;-51
2021/08/15 08:14:48;;;;;;;9.80;5.47;;;;;;;;;;143747;599;46020;-51
2021/08/15 08:17:16;;;;;;;10.70;5.87;;;;;;;;;;143742;569;47020;-52
2021/08/15 08:19:44;;;;;;;7.70;5.90;;;;;;;;;;143743;566;46010;-51
2021/08/15 08:22:11;;;;;;;8.88;6.22;;;;;;;;;;143744;583;45020;-51
2021/08/15 08:24:38;;;;;;;10.35;6.10;;;;;;;;;;143745;612;46010;-51
2021/08/15 08:27:05;;;;;;;10.23;5.53;;;;;;;;;;143741;650;47023;-51
2021/08/15 08:29:32;;;;;;;9.98;6.28;;;;;;;;;;143739;582;47010;-50
2021/08/15 08:31:59;;;;;;;9.55;5.87;;;;;;;;;;143744;587;45021;-51
2021/08/15 08:34:26;;;;;;;10.05;5.93;;;;;;;;;;143744;564;46021;-51
2021/08/15 08:36:53;;;;;;;7.43;5.45;;;;;;;;;;143744;626;47020;-51
2021/08/15 08:39:21;;;;;;;9.40;6.30;;;;;;;;;;143740;583;47011;-51
2021/08/15 08:41:48;;;;;;;8.88;5.50;;;;;;;;;;143746;603;45021;-50
2021/08/15 08:44:16;;;;;;;7.82;5.55;;;;;;;;;;143746;584;46020;-50
2021/08/15 08:46:45;;;;;;;9.88;6.10;;;;;;;;;;143741;580;47022;-51
2021/08/15 08:49:15;;;;;;;10.02;6.57;;;;;;;;;;143742;583;46028;-51
2021/08/15 08:51:45;;;;;;;9.50;6.25;;;;;;;;;;143743;597;45020;-51
2021/08/15 08:54:12;;;;;;;8.70;5.97;;;;;;;;;;143745;573;45021;-50
2021/08/15 08:56:39;;;;;;;10.43;5.97;;;;;;;;;;143738;573;47023;-51
2021/08/15 08:59:06;;;;;;;8.63;6.12;;;;;;;;;;143739;571;47010;-50
2021/08/15 09:01:33;;;;;;;10.75;5.75;;;;;;;;;;143743;601;45024;-51
2021/08/15 09:04:00;;;;;;;9.23;5.40;;;;;;;;;;143742;612;46018;-50
2021/08/15 09:06:28;;;;;;;9.00;5.60;;;;;;;;;;143742;588;47020;-51
2021/08/15 09:08:55;;;;;;;8.93;5.68;;;;;;;;;;143741;603;46011;-51
2021/08/15 09:11:24;;;;;;;9.52;6.05;;;;;;;;;;143742;615;45021;-51
2021/08/15 09:14:09;;;;;;;9.80;5.78;;;;;;;;;;143743;596;46020;-52
2021/08/15 09:17:04;;;;;;;9.52;6.18;;;;;;;;;;143741;605;47021;-51
2021/08/15 09:19:40;;;;;;;11.93;5.97;;;;;;;;;;143739;571;47010;-51
2021/08/15 09:22:31;;;;;;;9.55;6.03;;;;;;;;;;143741;593;45020;-52
2021/08/15 09:25:03;;;;;;;11.20;6.12;;;;;;;;;;143745;592;46020;-51
2021/08/15 09:27:47;;;;;;;7.85;5.37;;;;;;;;;;143742;630;46050;-51
2021/08/15 09:30:33;;;;;;;8.38;6.50;;;;;;;;;;143742;569;46010;-51
2021/08/15 09:33:08;;;;;;;8.73;5.62;;;;;;;;;;143739;608;45021;-52
2021/08/15 09:35:42;;;;;;;9.85;5.87;;;;;;;;;;143730;659;46010;-51
2021/08/15 09:38:19;;;;;;;8.35;5.75;;;;;;;;;;143726;564;47010;-52
2021/08/15 09:40:51;;;;;;;9.00;5.53;;;;;;;;;;143726;648;46011;-52
2021/08/15 09:43:21;;;;;;;7.35;5.50;;;;;;;;;;143729;638;45020;-52
2021/08/15 09:45:53;;;;;;;10.57;6.10;;;;;;;;;;143727;607;46020;-51
2021/08/15 09:48:40;;;;;;;10.65;6.22;;;;;;;;;;143725;586;47021;-51
2021/08/15 09:51:27;;;;;;;10.57;5.70;;;;;;;;;;143726;581;46010;-52
2021/08/15 09:54:03;;;;;;;8.90;5.60;;;;;;;;;;143729;572;45022;-52
2021/08/15 09:56:36;;;;;;;9.43;5.85;;;;;;;;;;143730;569;46010;-52
2021/08/15 09:59:17;;;;;;;9.52;5.97;;;;;;;;;;143727;585;47020;-52
2021/08/15 10:01:47;;;;;;;8.32;5.30;;;;;;;;;;143726;577;46010;-52
2021/08/15 10:04:15;;;;;;;9.50;6.35;;;;;;;;;;143728;582;45021;-52
2021/08/15 10:06:45;;;;;;;8.13;5.97;;;;;;;;;;143728;649;46020;-52
2021/08/15 10:09:13;;;;;;;9.75;5.50;;;;;;;;;;143726;564;47021;-53
2021/08/15 10:11:41;;;;;;;12.23;5.62;;;;;;;;;;143725;596;47010;-53
2021/08/15 10:14:09;;;;;;;10.55;6.35;;;;;;;;;;143727;664;45020;-53
2021/08/15 10:17:03;;;;;;;8.60;5.70;;;;;;;;;;143730;574;46028;-53
2021/08/15 10:19:41;;;;;;;;;;;;;;;;;;143730;982;47020;-53
2021/08/15 10:22:10;;;;;;;7.87;5.50;;;;;;;;;;143735;731;47010;-52
2021/08/15 10:24:52;;;;;;;12.07;6.00;;;;;;;;;;143730;569;45021;-52
2021/08/15 10:27:43;;;;;;;12.35;5.93;;;;;;;;;;143729;581;46012;-53
2021/08/15 10:30:44;;;;;;;9.27;5.75;;;;;;;;;;143725;697;47020;-53
2021/08/15 10:33:21;;;;;;;14.00;5.57;;;;;;;;;;143725;591;47010;-52
2021/08/15 10:36:31;;;;;;;11.43;5.90;;;;;;;;;;143729;565;45022;-52
2021/08/15 10:38:59;;;;;;;8.45;5.75;;;;;;;;;;143730;569;46020;-53
2021/08/15 10:41:47;;;;;;;7.18;5.30;;;;;;;;;;143725;587;47020;-53
2021/08/15 10:44:15;;;;;;;8.20;5.70;;;;;;;;;;143726;604;47020;-53
2021/08/15 10:47:12;;;;;;;7.47;5.45;;;;;;;;;;143729;592;45021;-53
2021/08/15 10:49:53;;;;;;;10.73;5.68;;;;;;;;;;143729;666;46014;-53
2021/08/15 10:52:47;;;;;;;9.85;5.75;;;;;;;;;;143725;592;47022;-53
2021/08/15 10:55:19;;;;;;;9.95;6.07;;;;;;;;;;143726;609;46011;-53
2021/08/15 10:57:54;;;;;;;8.45;6.00;;;;;;;;;;143726;646;46020;-53
2021/08/15 11:00:50;;;;;;;10.80;5.87;;;;;;;;;;143729;572;46020;-53
2021/08/15 11:03:30;;;;;;;8.07;5.90;;;;;;;;;;143725;575;47025;-53
2021/08/15 11:05:58;;;;;;;9.40;5.90;;;;;;;;;;143727;614;47010;-53
2021/08/15 11:08:54;;;;;;;8.18;5.93;;;;;;;;;;143728;597;45021;-53
2021/08/15 11:11:26;;;;;;;8.93;6.20;;;;;;;;;;143730;760;46020;-54
2021/08/15 11:14:24;;;;;;;8.70;5.72;;;;;;;;;;143728;626;46020;-53
2021/08/15 11:17:12;;;;;;;7.22;5.57;;;;;;;;;;143726;582;46011;-53
2021/08/15 11:19:39;;;;;;;9.27;5.90;;;;;;;;;;143728;630;45022;-53
2021/08/15 11:22:18;;;;;;;7.28;5.45;;;;;;;;;;143730;619;46020;-53
2021/08/15 11:25:05;;;;;;;13.02;5.87;;;;;;;;;;143725;564;47021;-52
2021/08/15 11:27:40;;;;;;;18.02;6.68;;;;;;;;;;143726;573;46025;-53
2021/08/15 11:30:17;;;;;;;7.40;5.47;;;;;;;;;;143728;576;45022;-53
2021/08/15 11:32:53;;;;;;;9.32;5.90;;;;;;;;;;143728;624;47014;-53
2021/08/15 11:35:20;;;;;;;10.40;6.40;;;;;;;;;;143725;620;47022;-53
2021/08/15 11:37:54;;;;;;;8.63;5.50;;;;;;;;;;143726;593;46020;-53
2021/08/15 11:40:27;;;;;;;8.63;5.72;;;;;;;;;;143728;587;45021;-53
2021/08/15 11:43:08;;;;;;;8.37;5.37;;;;;;;;;;143730;610;46020;-52
2021/08/15 11:45:41;;;;;;;9.23;6.68;;;;;;;;;;143725;566;47022;-52
2021/08/15 11:48:16;;;;;;;8.15;5.47;;;;;;;;;;143725;582;47010;-53
2021/08/15 11:50:46;;;;;;;11.80;5.97;;;;;;;;;;143727;591;45910;-53
2021/08/15 11:53:24;;;;;;;12.23;6.25;;;;;;;;;;143730;565;46013;-52
2021/08/15 11:55:53;;;;;;;9.23;5.68;;;;;;;;;;143726;572;47021;-53
2021/08/15 11:58:21;;;;;;;10.15;5.70;;;;;;;;;;143727;569;46010;-53
2021/08/15 12:00:48;;;;;;;10.25;6.10;;;;;;;;;;143729;564;45021;-52
2021/08/15 12:03:18;;;;;;;9.55;6.35;;;;;;;;;;143730;589;45021;-53
2021/08/15 12:05:47;;;;;;;7.55;5.82;;;;;;;;;;143726;742;47020;-52
2021/08/15 12:08:20;;;;;;;7.47;5.53;;;;;;;;;;143727;596;46010;-53
2021/08/15 12:10:56;;;;;;;8.00;5.47;;;;;;;;;;143729;592;45021;-53
2021/08/15 12:13:34;;;;;;;13.82;6.37;;;;;;;;;;143730;578;46012;-53
2021/08/15 12:16:11;;;;;;;9.82;5.50;;;;;;;;;;143727;634;47021;-52
2021/08/15 12:18:41;;;;;;;9.25;6.00;;;;;;;;;;143726;582;46022;-53
2021/08/15 12:21:28;;;;;;;10.70;5.87;;;;;;;;;;143727;582;46010;-52
2021/08/15 12:24:16;;;;;;;11.55;6.20;;;;;;;;;;143729;618;46020;-52
2021/08/15 12:27:05;;;;;;;8.25;5.85;;;;;;;;;;143725;600;47022;-52
2021/08/15 12:29:37;;;;;;;8.40;5.95;;;;;;;;;;143727;573;46010;-53
2021/08/15 12:32:27;;;;;;;9.90;5.85;;;;;;;;;;143727;573;45021;-52
2021/08/15 12:35:03;;;;;;;10.18;6.20;;;;;;;;;;143757;658;45022;-52
2021/08/15 12:37:39;;;;;;;10.05;5.70;;;;;;;;;;143753;606;46021;-53
2021/08/15 12:40:09;;;;;;;8.43;5.75;;;;;;;;;;143755;566;45919;-52
2021/08/15 12:42:38;;;;;;;9.05;5.85;;;;;;;;;;143754;569;45020;-53
2021/08/15 12:45:09;;;;;;;8.63;5.97;;;;;;;;;;143758;575;45020;-53
2021/08/15 12:47:42;;;;;;;9.30;5.50;;;;;;;;;;143754;571;46020;-52
2021/08/15 12:50:26;;;;;;;9.35;5.80;;;;;;;;;;143754;606;46919;-52
2021/08/15 12:52:56;;;;;;;7.32;5.40;;;;;;;;;;143757;573;44911;-53
2021/08/15 12:55:36;;;;;;;10.27;6.03;;;;;;;;;;143758;623;45021;-52
2021/08/15 12:58:13;;;;;;;8.55;5.65;;;;;;;;;;143755;677;46020;-52
2021/08/15 13:00:48;;;;;;;7.70;5.53;;;;;;;;;;143752;564;46022;-53
2021/08/15 13:03:22;;;;;;;8.80;5.62;;;;;;;;;;143756;585;44912;-52
2021/08/15 13:05:50;;;;;;;9.40;5.80;;;;;;;;;;143756;573;46020;-53
2021/08/15 13:08:17;;;;;;;7.50;5.57;;;;;;;;;;143754;645;46021;-53
2021/08/15 13:10:45;;;;;;;9.23;5.75;;;;;;;;;;143754;636;45919;-52
2021/08/15 13:13:14;;;;;;;8.05;5.65;;;;;;;;;;143757;566;44912;-52
2021/08/15 13:15:42;;;;;;;7.62;5.53;;;;;;;;;;143758;654;45020;-52
2021/08/15 13:18:09;;;;;;;9.13;4.93;;;;;;;;;;143753;678;48023;-52
2021/08/15 13:20:38;;;;;;;8.50;5.28;;;;;;;;;;143755;636;46010;-53
2021/08/15 13:23:05;;;;;;;9.60;5.65;;;;;;;;;;143758;682;44021;-52
2021/08/15 13:25:32;;;;;;;7.95;5.65;;;;;;;;;;143758;587;45021;-53
2021/08/15 13:28:00;;;;;;;7.28;5.22;;;;;;;;;;143753;566;46020;-53
2021/08/15 13:30:27;;;;;;;9.98;5.82;;;;;;;;;;143754;573;46010;-52
2021/08/15 13:33:00;;;;;;;11.52;5.60;;;;;;;;;;143745;593;45021;-53
2021/08/15 13:35:28;;;;;;;10.27;6.07;;;;;;;;;;143730;611;46020;-52
2021/08/15 13:37:55;;;;;;;7.15;5.57;;;;;;;;;;143724;569;47021;-52
2021/08/15 13:40:22;;;;;;;6.75;5.12;;;;;;;;;;143726;591;46010;-53
2021/08/15 13:42:49;;;;;;;10.35;5.70;;;;;;;;;;143729;595;45020;-52
2021/08/15 13:45:16;;;;;;;8.25;5.68;;;;;;;;;;143730;633;46013;-52
2021/08/15 13:47:43;;;;;;;8.60;5.80;;;;;;;;;;143728;573;47020;-52
2021/08/15 13:50:12;;;;;;;7.40;5.65;;;;;;;;;;143726;641;47010;-52
2021/08/15 13:52:39;;;;;;;9.43;6.03;;;;;;;;;;143728;671;47021;-52
2021/08/15 13:55:06;;;;;;;11.43;5.87;;;;;;;;;;143730;576;46020;-53
2021/08/15 13:57:33;;;;;;;9.18;5.93;;;;;;;;;;143727;578;47020;-52
2021/08/15 14:00:00;;;;;;;10.07;5.50;;;;;;;;;;143727;655;46010;-53
2021/08/15 14:02:28;;;;;;;8.10;5.70;;;;;;;;;;143731;654;45021;-52
2021/08/15 14:04:55;;;;;;;11.00;5.78;;;;;;;;;;143730;566;46020;-53
2021/08/15 14:07:22;;;;;;;9.32;5.37;;;;;;;;;;143725;690;47022;-52
2021/08/15 14:09:49;;;;;;;9.38;5.40;;;;;;;;;;143725;669;47010;-53
2021/08/15 14:12:17;;;;;;;8.45;5.68;;;;;;;;;;143728;671;45020;-53
2021/08/15 14:14:44;;;;;;;7.75;5.32;;;;;;;;;;143730;693;46020;-52
2021/08/15 14:17:11;;;;;;;8.15;5.70;;;;;;;;;;143726;810;47020;-53
2021/08/15 14:19:38;;;;;;;9.63;5.47;;;;;;;;;;143726;745;46024;-52
2021/08/15 14:22:05;;;;;;;9.32;5.95;;;;;;;;;;143728;591;45021;-53
2021/08/15 14:24:32;;;;;;;9.00;5.40;;;;;;;;;;143730;583;46020;-53
2021/08/15 14:26:59;;;;;;;7.15;5.50;;;;;;;;;;143725;678;47020;-52
2021/08/15 14:29:26;;;;;;;6.87;5.37;;;;;;;;;;143724;565;47010;-53
2021/08/15 14:31:54;;;;;;;8.75;5.80;;;;;;;;;;143728;564;45912;-53
2021/08/15 14:34:21;;;;;;;8.15;5.30;;;;;;;;;;143729;573;46021;-52
2021/08/15 14:36:49;;;;;;;7.75;5.60;;;;;;;;;;143727;596;47020;-53
2021/08/15 14:39:16;;;;;;;8.90;5.75;;;;;;;;;;143727;567;46029;-53
2021/08/15 14:41:44;;;;;;;9.45;5.57;;;;;;;;;;143728;566;45020;-53
2021/08/15 14:44:11;;;;;;;8.57;5.60;;;;;;;;;;143729;663;46020;-53
2021/08/15 14:46:38;;;;;;;12.15;5.65;;;;;;;;;;143725;614;47020;-53
2021/08/15 14:49:05;;;;;;;9.68;5.93;;;;;;;;;;143727;664;46010;-53
2021/08/15 14:51:32;;;;;;;7.00;5.40;;;;;;;;;;143728;640;45021;-52
2021/08/15 14:53:59;;;;;;;5.90;4.72;;;;;;;;;;143730;566;46012;-53